createdAt,value
2022-10-19T00:00:03.005Z,9.5
2022-10-19T00:20:02.815Z,9.7
2022-10-19T00:40:02.188Z,9.9
2022-10-19T01:00:02.607Z,10.1
2022-10-19T01:20:02.217Z,10.1
2022-10-19T01:40:02.768Z,10.1
2022-10-19T02:00:02.053Z,10.4
2022-10-19T02:20:02.716Z,10.4
2022-10-19T02:40:03.114Z,10.5
2022-10-19T03:00:02.695Z,10.5
2022-10-19T03:20:02.242Z,10.6
2022-10-19T03:40:02.667Z,10.6
2022-10-19T04:00:03.052Z,10.6
2022-10-19T04:20:02.574Z,10.5
2022-10-19T04:40:02.886Z,10.5
2022-10-19T05:00:02.261Z,10.5
2022-10-19T05:20:02.968Z,10.5
2022-10-19T05:40:02.275Z,10.5
2022-10-19T06:00:02.700Z,10.5
2022-10-19T06:20:02.522Z,10.3
2022-10-19T06:40:06.828Z,10.3
2022-10-19T07:00:02.598Z,10.5
2022-10-19T07:20:02.487Z,11.1
2022-10-19T07:40:03.133Z,11
2022-10-19T08:00:02.704Z,11.1
2022-10-19T08:20:02.491Z,11.5
2022-10-19T08:40:02.907Z,11.8
2022-10-19T09:00:02.305Z,11.7
2022-10-19T09:20:02.283Z,12.3
2022-10-19T09:40:02.740Z,13.1
2022-10-19T10:00:03.320Z,13.5
2022-10-19T10:20:02.948Z,13.6
2022-10-19T10:40:04.651Z,13.8
2022-10-19T11:00:02.384Z,13.5
2022-10-19T11:20:03.181Z,13.5
2022-10-19T11:40:02.600Z,13.9
2022-10-19T12:00:08.725Z,14.1
2022-10-19T12:20:03.245Z,13.7
2022-10-19T12:40:03.219Z,14.3
2022-10-19T13:00:03.887Z,14.1
2022-10-19T13:20:02.783Z,14
2022-10-19T13:40:03.228Z,13.7
2022-10-19T14:00:03.783Z,13.8
2022-10-19T15:00:03.455Z,13
2022-10-19T15:20:02.667Z,12.5
2022-10-19T15:40:03.606Z,12.1
2022-10-19T16:00:03.158Z,11.7
2022-10-19T16:20:03.904Z,11.2
2022-10-19T16:40:03.091Z,10.7
2022-10-19T17:00:02.738Z,10.3
2022-10-19T17:20:03.119Z,9.8
2022-10-19T17:40:02.800Z,9.4
2022-10-19T18:00:02.885Z,9
2022-10-19T18:20:04.595Z,8.6
2022-10-19T18:40:04.277Z,8.2
2022-10-19T19:00:04.150Z,7.9
2022-10-19T19:20:03.765Z,7.5
2022-10-19T19:40:03.960Z,7.2
2022-10-19T20:00:03.719Z,7
2022-10-19T20:20:03.888Z,6.8
2022-10-19T20:40:07.432Z,6.5
2022-10-19T21:00:02.302Z,6.3
2022-10-19T21:20:02.811Z,6
2022-10-19T21:40:02.374Z,5.9
2022-10-19T22:00:02.699Z,5.6
2022-10-19T22:20:02.113Z,5.4
2022-10-19T22:40:02.552Z,5.2
2022-10-19T23:00:02.841Z,5.1
2022-10-19T23:20:02.229Z,4.9
2022-10-19T23:40:02.364Z,4.9
